createdAt,value
2022-08-26T19:31:02.102Z,62.04
2022-08-26T19:33:29.297Z,62.60
2022-08-26T19:35:56.254Z,62.79
2022-08-26T19:38:22.823Z,62.50
2022-08-26T19:40:49.337Z,62.59
2022-08-26T19:43:15.869Z,62.45
2022-08-26T19:45:43.546Z,62.63
2022-08-26T19:48:10.263Z,62.45
2022-08-26T19:50:36.826Z,62.15
2022-08-26T19:53:03.548Z,62.06
2022-08-26T19:55:30.783Z,61.60
2022-08-26T19:57:57.360Z,61.70
2022-08-26T20:00:26.569Z,60.76
2022-08-26T20:02:53.688Z,60.66
2022-08-26T20:05:22.907Z,61.02
2022-08-26T20:07:50.010Z,60.37
2022-08-26T20:10:18.874Z,60.01
2022-08-26T20:12:45.381Z,60.36
2022-08-26T20:15:13.028Z,59.82
2022-08-26T20:17:40.452Z,59.91
2022-08-26T20:20:13.296Z,59.66
2022-08-26T20:22:56.671Z,59.40
2022-08-26T20:25:23.549Z,59.54
2022-08-26T20:27:50.069Z,59.28
2022-08-26T20:30:16.579Z,58.88
2022-08-26T20:32:43.382Z,59.64
2022-08-26T20:35:12.558Z,59.41
2022-08-26T20:37:39.923Z,58.83
2022-08-26T20:40:07.981Z,58.88
2022-08-26T20:42:34.906Z,59.10
2022-08-26T20:45:02.041Z,59.03
2022-08-26T20:47:28.619Z,58.77
2022-08-26T20:49:55.788Z,58.86
2022-08-26T20:52:22.518Z,59.39
2022-08-26T20:54:49.019Z,59.00
2022-08-26T20:57:15.645Z,59.00
2022-08-26T20:59:42.150Z,59.41
2022-08-26T21:02:08.788Z,59.55
2022-08-26T21:04:35.451Z,59.09
2022-08-26T21:07:02.038Z,59.49
2022-08-26T21:09:28.575Z,59.51
2022-08-26T21:11:56.786Z,59.54
2022-08-26T21:14:25.867Z,59.49
2022-08-26T21:16:58.783Z,59.24
2022-08-26T21:19:25.851Z,59.39
2022-08-26T21:21:56.084Z,60.19
2022-08-26T21:24:32.455Z,59.49
2022-08-26T21:27:02.292Z,60.43
2022-08-26T21:29:29.198Z,60.31
2022-08-26T21:31:59.601Z,60.49
2022-08-26T21:34:26.700Z,60.56
2022-08-26T21:36:54.951Z,61.19
2022-08-26T21:39:21.774Z,60.68
2022-08-26T21:41:48.395Z,61.01
2022-08-26T21:44:16.895Z,61.27
2022-08-26T21:46:45.011Z,61.50
2022-08-26T21:49:14.009Z,61.77
2022-08-26T21:51:45.358Z,61.61
2022-08-26T21:54:13.255Z,61.68
2022-08-26T21:56:45.234Z,60.90
2022-08-26T21:59:12.841Z,61.45
2022-08-26T22:01:39.429Z,61.56
2022-08-26T22:04:08.020Z,61.45
2022-08-26T22:06:41.671Z,61.27
2022-08-26T22:09:08.234Z,62.01
2022-08-26T22:11:34.792Z,61.72
2022-08-26T22:14:01.348Z,61.98
2022-08-26T22:16:28.041Z,62.01
2022-08-26T22:18:54.670Z,63.04
2022-08-26T22:21:25.044Z,62.64
2022-08-26T22:23:51.852Z,62.56
2022-08-26T22:26:25.585Z,62.33
2022-08-26T22:28:58.601Z,63.01
2022-08-26T22:31:37.245Z,63.00
2022-08-26T22:34:10.559Z,63.34
2022-08-26T22:36:43.192Z,63.74
2022-08-26T22:39:12.712Z,63.81
2022-08-26T22:41:39.306Z,63.63
2022-08-26T22:44:06.083Z,63.77
2022-08-26T22:46:32.618Z,63.68
2022-08-26T22:48:59.176Z,63.81
2022-08-26T22:51:25.752Z,64.87
2022-08-26T22:53:52.296Z,64.50
2022-08-26T22:56:18.861Z,65.20
2022-08-26T22:58:45.425Z,64.90
2022-08-26T23:01:12.002Z,64.91
2022-08-26T23:03:38.658Z,64.93
2022-08-26T23:06:07.208Z,64.39
2022-08-26T23:08:33.721Z,64.62
2022-08-26T23:11:00.250Z,65.20
2022-08-26T23:13:26.990Z,64.64
2022-08-26T23:16:04.924Z,64.73
2022-08-26T23:18:32.118Z,64.81
2022-08-26T23:20:58.614Z,65.52
2022-08-26T23:23:25.607Z,66.00
2022-08-26T23:25:52.085Z,66.06
2022-08-26T23:28:18.713Z,65.75
2022-08-26T23:30:47.060Z,66.31
2022-08-26T23:33:14.073Z,67.00
2022-08-26T23:35:40.627Z,66.69
2022-08-26T23:38:08.077Z,66.73
2022-08-26T23:40:38.006Z,66.72
2022-08-26T23:43:07.804Z,66.81
2022-08-26T23:45:35.464Z,66.89
2022-08-26T23:48:02.374Z,67.41
2022-08-26T23:50:30.539Z,66.93
2022-08-26T23:52:57.025Z,67.77
2022-08-26T23:55:23.559Z,67.68
2022-08-26T23:57:50.276Z,67.34
